sensor_id;sensor_type;location;lat;lon;timestamp;temperature;humidity
71155;DHT22;59375;53.216;5.728;2022-12-07T00:01:21;4.50;99.90
71155;DHT22;59375;53.216;5.728;2022-12-07T00:03:48;4.40;99.90
71155;DHT22;59375;53.216;5.728;2022-12-07T00:06:14;4.40;99.90
71155;DHT22;59375;53.216;5.728;2022-12-07T00:08:40;4.40;99.90
71155;DHT22;59375;53.216;5.728;2022-12-07T00:11:09;4.40;99.90
71155;DHT22;59375;53.216;5.728;2022-12-07T00:13:35;4.50;99.90
71155;DHT22;59375;53.216;5.728;2022-12-07T00:16:01;4.50;99.90
71155;DHT22;59375;53.216;5.728;2022-12-07T00:18:27;4.60;99.90
71155;DHT22;59375;53.216;5.728;2022-12-07T00:20:53;4.60;99.90
71155;DHT22;59375;53.216;5.728;2022-12-07T00:23:18;4.60;99.90
71155;DHT22;59375;53.216;5.728;2022-12-07T00:25:43;4.60;99.90
71155;DHT22;59375;53.216;5.728;2022-12-07T00:28:09;4.70;99.90
71155;DHT22;59375;53.216;5.728;2022-12-07T00:30:36;4.80;99.90
71155;DHT22;59375;53.216;5.728;2022-12-07T00:33:01;4.80;99.90
71155;DHT22;59375;53.216;5.728;2022-12-07T00:35:26;4.80;99.90
71155;DHT22;59375;53.216;5.728;2022-12-07T00:37:52;4.90;99.90
71155;DHT22;59375;53.216;5.728;2022-12-07T00:40:17;4.90;99.90
71155;DHT22;59375;53.216;5.728;2022-12-07T00:42:43;4.90;99.90
71155;DHT22;59375;53.216;5.728;2022-12-07T00:45:08;4.90;99.90
71155;DHT22;59375;53.216;5.728;2022-12-07T00:47:34;4.90;99.90
71155;DHT22;59375;53.216;5.728;2022-12-07T00:49:59;4.90;99.90
71155;DHT22;59375;53.216;5.728;2022-12-07T00:52:25;4.80;99.90
71155;DHT22;59375;53.216;5.728;2022-12-07T00:54:50;4.80;99.90
71155;DHT22;59375;53.216;5.728;2022-12-07T00:57:16;4.70;99.90
71155;DHT22;59375;53.216;5.728;2022-12-07T00:59:41;4.70;99.90
71155;DHT22;59375;53.216;5.728;2022-12-07T01:02:07;4.60;99.90
71155;DHT22;59375;53.216;5.728;2022-12-07T01:04:33;4.60;99.90
71155;DHT22;59375;53.216;5.728;2022-12-07T01:06:58;4.60;99.90
71155;DHT22;59375;53.216;5.728;2022-12-07T01:09:24;4.70;99.90
71155;DHT22;59375;53.216;5.728;2022-12-07T01:11:49;4.80;99.90
71155;DHT22;59375;53.216;5.728;2022-12-07T01:14:15;4.80;99.90
71155;DHT22;59375;53.216;5.728;2022-12-07T01:16:40;4.80;99.90
71155;DHT22;59375;53.216;5.728;2022-12-07T01:19:06;4.80;99.90
71155;DHT22;59375;53.216;5.728;2022-12-07T01:21:32;4.70;99.90
71155;DHT22;59375;53.216;5.728;2022-12-07T01:24:06;4.70;99.90
71155;DHT22;59375;53.216;5.728;2022-12-07T01:26:32;4.60;99.90
71155;DHT22;59375;53.216;5.728;2022-12-07T01:28:57;4.50;99.90
71155;DHT22;59375;53.216;5.728;2022-12-07T01:31:25;4.50;99.90
71155;DHT22;59375;53.216;5.728;2022-12-07T01:33:52;4.50;99.90
71155;DHT22;59375;53.216;5.728;2022-12-07T01:36:18;4.50;99.90
71155;DHT22;59375;53.216;5.728;2022-12-07T01:38:44;4.50;99.90
71155;DHT22;59375;53.216;5.728;2022-12-07T01:41:11;4.50;99.90
71155;DHT22;59375;53.216;5.728;2022-12-07T01:43:36;4.60;99.90
71155;DHT22;59375;53.216;5.728;2022-12-07T01:46:02;4.60;99.90
71155;DHT22;59375;53.216;5.728;2022-12-07T01:48:34;4.70;99.90
71155;DHT22;59375;53.216;5.728;2022-12-07T01:51:01;4.80;99.90
71155;DHT22;59375;53.216;5.728;2022-12-07T01:53:29;4.90;99.90
71155;DHT22;59375;53.216;5.728;2022-12-07T01:55:55;5.00;99.90
71155;DHT22;59375;53.216;5.728;2022-12-07T01:58:21;5.00;99.90
71155;DHT22;59375;53.216;5.728;2022-12-07T02:00:47;5.00;99.90
71155;DHT22;59375;53.216;5.728;2022-12-07T02:05:38;4.80;99.90
71155;DHT22;59375;53.216;5.728;2022-12-07T02:08:05;4.80;99.90
71155;DHT22;59375;53.216;5.728;2022-12-07T02:10:31;4.80;99.90
71155;DHT22;59375;53.216;5.728;2022-12-07T02:12:58;4.70;99.90
71155;DHT22;59375;53.216;5.728;2022-12-07T02:15:28;4.70;99.90
71155;DHT22;59375;53.216;5.728;2022-12-07T02:17:57;4.70;99.90
71155;DHT22;59375;53.216;5.728;2022-12-07T02:20:30;4.70;99.90
71155;DHT22;59375;53.216;5.728;2022-12-07T02:25:37;4.90;99.90
71155;DHT22;59375;53.216;5.728;2022-12-07T02:28:12;4.90;99.90
71155;DHT22;59375;53.216;5.728;2022-12-07T02:30:42;4.80;99.90
71155;DHT22;59375;53.216;5.728;2022-12-07T02:33:19;4.80;99.90
71155;DHT22;59375;53.216;5.728;2022-12-07T02:35:59;4.80;99.90
71155;DHT22;59375;53.216;5.728;2022-12-07T02:38:29;4.80;99.90
71155;DHT22;59375;53.216;5.728;2022-12-07T02:41:07;4.80;99.90
71155;DHT22;59375;53.216;5.728;2022-12-07T02:43:36;4.90;99.90
71155;DHT22;59375;53.216;5.728;2022-12-07T02:46:11;4.90;99.90
71155;DHT22;59375;53.216;5.728;2022-12-07T02:48:37;4.90;99.90
71155;DHT22;59375;53.216;5.728;2022-12-07T02:51:04;4.90;99.90
71155;DHT22;59375;53.216;5.728;2022-12-07T02:53:36;4.90;99.90
71155;DHT22;59375;53.216;5.728;2022-12-07T02:56:07;4.90;99.90
71155;DHT22;59375;53.216;5.728;2022-12-07T03:01:15;4.80;99.90
71155;DHT22;59375;53.216;5.728;2022-12-07T03:03:47;4.70;99.90
71155;DHT22;59375;53.216;5.728;2022-12-07T03:06:22;4.70;99.90
71155;DHT22;59375;53.216;5.728;2022-12-07T03:08:54;4.70;99.90
71155;DHT22;59375;53.216;5.728;2022-12-07T03:11:24;4.80;99.90
71155;DHT22;59375;53.216;5.728;2022-12-07T03:13:56;4.80;99.90
71155;DHT22;59375;53.216;5.728;2022-12-07T03:16:26;4.80;99.90
71155;DHT22;59375;53.216;5.728;2022-12-07T03:18:57;4.80;99.90
71155;DHT22;59375;53.216;5.728;2022-12-07T03:21:25;4.80;99.90
71155;DHT22;59375;53.216;5.728;2022-12-07T03:23:54;4.70;99.90
71155;DHT22;59375;53.216;5.728;2022-12-07T03:26:21;4.70;99.90
71155;DHT22;59375;53.216;5.728;2022-12-07T03:28:49;4.70;99.90
71155;DHT22;59375;53.216;5.728;2022-12-07T03:31:18;4.80;99.90
71155;DHT22;59375;53.216;5.728;2022-12-07T03:33:46;4.80;99.90
71155;DHT22;59375;53.216;5.728;2022-12-07T03:36:47;4.80;99.90
71155;DHT22;59375;53.216;5.728;2022-12-07T03:42:03;4.80;99.90
71155;DHT22;59375;53.216;5.728;2022-12-07T03:44:29;4.70;99.90
71155;DHT22;59375;53.216;5.728;2022-12-07T03:47:01;4.70;99.90
71155;DHT22;59375;53.216;5.728;2022-12-07T03:49:30;4.60;99.90
71155;DHT22;59375;53.216;5.728;2022-12-07T03:52:00;4.60;99.90
71155;DHT22;59375;53.216;5.728;2022-12-07T03:54:41;4.60;99.90
71155;DHT22;59375;53.216;5.728;2022-12-07T03:57:09;4.50;99.90
71155;DHT22;59375;53.216;5.728;2022-12-07T03:59:35;4.50;99.90
71155;DHT22;59375;53.216;5.728;2022-12-07T04:02:02;4.40;99.90
71155;DHT22;59375;53.216;5.728;2022-12-07T04:04:28;4.50;99.90
71155;DHT22;59375;53.216;5.728;2022-12-07T04:06:53;4.50;99.90
71155;DHT22;59375;53.216;5.728;2022-12-07T04:09:19;4.60;99.90
71155;DHT22;59375;53.216;5.728;2022-12-07T04:11:44;4.60;99.90
71155;DHT22;59375;53.216;5.728;2022-12-07T04:14:10;4.60;99.90
71155;DHT22;59375;53.216;5.728;2022-12-07T04:19:10;4.60;99.90
71155;DHT22;59375;53.216;5.728;2022-12-07T04:21:35;4.50;99.90
71155;DHT22;59375;53.216;5.728;2022-12-07T04:24:01;4.50;99.90
71155;DHT22;59375;53.216;5.728;2022-12-07T04:26:26;4.40;99.90
71155;DHT22;59375;53.216;5.728;2022-12-07T04:28:52;4.40;99.90
71155;DHT22;59375;53.216;5.728;2022-12-07T04:31:17;4.40;99.90
71155;DHT22;59375;53.216;5.728;2022-12-07T04:33:43;4.40;99.90
71155;DHT22;59375;53.216;5.728;2022-12-07T04:36:08;4.40;99.90
71155;DHT22;59375;53.216;5.728;2022-12-07T04:38:33;4.50;99.90
71155;DHT22;59375;53.216;5.728;2022-12-07T04:41:03;4.40;99.90
71155;DHT22;59375;53.216;5.728;2022-12-07T04:43:29;4.40;99.90
71155;DHT22;59375;53.216;5.728;2022-12-07T04:45:54;4.40;99.90
71155;DHT22;59375;53.216;5.728;2022-12-07T04:48:20;4.40;99.90
71155;DHT22;59375;53.216;5.728;2022-12-07T04:50:47;4.50;99.90
71155;DHT22;59375;53.216;5.728;2022-12-07T04:53:13;4.50;99.90
71155;DHT22;59375;53.216;5.728;2022-12-07T04:55:39;4.60;99.90
71155;DHT22;59375;53.216;5.728;2022-12-07T04:58:04;4.70;99.90
71155;DHT22;59375;53.216;5.728;2022-12-07T05:00:29;4.70;99.90
71155;DHT22;59375;53.216;5.728;2022-12-07T05:02:55;4.70;99.90
71155;DHT22;59375;53.216;5.728;2022-12-07T05:05:20;4.70;99.90
71155;DHT22;59375;53.216;5.728;2022-12-07T05:07:46;4.70;99.90
71155;DHT22;59375;53.216;5.728;2022-12-07T05:10:11;4.70;99.90
71155;DHT22;59375;53.216;5.728;2022-12-07T05:12:37;4.60;99.90
71155;DHT22;59375;53.216;5.728;2022-12-07T05:15:02;4.60;99.90
71155;DHT22;59375;53.216;5.728;2022-12-07T05:17:28;4.60;99.90
71155;DHT22;59375;53.216;5.728;2022-12-07T05:19:53;4.50;99.90
71155;DHT22;59375;53.216;5.728;2022-12-07T05:22:19;4.50;99.90
71155;DHT22;59375;53.216;5.728;2022-12-07T05:24:44;4.40;99.90
71155;DHT22;59375;53.216;5.728;2022-12-07T05:27:10;4.40;99.90
71155;DHT22;59375;53.216;5.728;2022-12-07T05:29:35;4.30;99.90
71155;DHT22;59375;53.216;5.728;2022-12-07T05:32:00;4.30;99.90
71155;DHT22;59375;53.216;5.728;2022-12-07T05:34:26;4.20;99.90
71155;DHT22;59375;53.216;5.728;2022-12-07T05:36:51;4.20;99.90
71155;DHT22;59375;53.216;5.728;2022-12-07T05:39:17;4.10;99.90
71155;DHT22;59375;53.216;5.728;2022-12-07T05:41:42;4.10;99.90
71155;DHT22;59375;53.216;5.728;2022-12-07T05:44:26;4.10;99.90
71155;DHT22;59375;53.216;5.728;2022-12-07T05:46:52;4.10;99.90
71155;DHT22;59375;53.216;5.728;2022-12-07T05:49:17;4.20;99.90
71155;DHT22;59375;53.216;5.728;2022-12-07T05:51:43;4.20;99.90
71155;DHT22;59375;53.216;5.728;2022-12-07T05:54:08;4.20;99.90
71155;DHT22;59375;53.216;5.728;2022-12-07T05:56:34;4.20;99.90
71155;DHT22;59375;53.216;5.728;2022-12-07T05:58:59;4.20;99.90
71155;DHT22;59375;53.216;5.728;2022-12-07T06:01:43;4.20;99.90
71155;DHT22;59375;53.216;5.728;2022-12-07T06:04:08;4.10;99.90
71155;DHT22;59375;53.216;5.728;2022-12-07T06:06:34;4.10;99.90
71155;DHT22;59375;53.216;5.728;2022-12-07T06:08:59;4.10;99.90
71155;DHT22;59375;53.216;5.728;2022-12-07T06:11:25;4.00;99.90
71155;DHT22;59375;53.216;5.728;2022-12-07T06:14:09;4.00;99.90
71155;DHT22;59375;53.216;5.728;2022-12-07T06:16:34;4.00;99.90
71155;DHT22;59375;53.216;5.728;2022-12-07T06:19:00;4.00;99.90
71155;DHT22;59375;53.216;5.728;2022-12-07T06:21:25;4.00;99.90
71155;DHT22;59375;53.216;5.728;2022-12-07T06:23:52;4.00;99.90
71155;DHT22;59375;53.216;5.728;2022-12-07T06:26:17;4.00;99.90
71155;DHT22;59375;53.216;5.728;2022-12-07T06:28:43;4.00;99.90
71155;DHT22;59375;53.216;5.728;2022-12-07T06:31:08;4.00;99.90
71155;DHT22;59375;53.216;5.728;2022-12-07T06:33:34;3.90;99.90
71155;DHT22;59375;53.216;5.728;2022-12-07T06:35:59;3.90;99.90
71155;DHT22;59375;53.216;5.728;2022-12-07T06:38:25;3.90;99.90
71155;DHT22;59375;53.216;5.728;2022-12-07T06:40:50;4.00;99.90
71155;DHT22;59375;53.216;5.728;2022-12-07T06:43:16;4.00;99.90
71155;DHT22;59375;53.216;5.728;2022-12-07T06:45:41;4.10;99.90
71155;DHT22;59375;53.216;5.728;2022-12-07T06:48:07;4.10;99.90
71155;DHT22;59375;53.216;5.728;2022-12-07T06:50:33;4.10;99.90
71155;DHT22;59375;53.216;5.728;2022-12-07T06:52:58;4.00;99.90
71155;DHT22;59375;53.216;5.728;2022-12-07T06:55:24;4.00;99.90
71155;DHT22;59375;53.216;5.728;2022-12-07T06:57:49;4.00;99.90
71155;DHT22;59375;53.216;5.728;2022-12-07T07:00:14;4.00;99.90
71155;DHT22;59375;53.216;5.728;2022-12-07T07:02:40;3.90;99.90
71155;DHT22;59375;53.216;5.728;2022-12-07T07:05:06;3.90;99.90
71155;DHT22;59375;53.216;5.728;2022-12-07T07:07:31;4.00;99.90
71155;DHT22;59375;53.216;5.728;2022-12-07T07:09:56;4.00;99.90
71155;DHT22;59375;53.216;5.728;2022-12-07T07:12:22;4.10;99.90
71155;DHT22;59375;53.216;5.728;2022-12-07T07:14:47;4.20;99.90
71155;DHT22;59375;53.216;5.728;2022-12-07T07:17:13;4.40;99.90
71155;DHT22;59375;53.216;5.728;2022-12-07T07:19:38;4.50;99.90
71155;DHT22;59375;53.216;5.728;2022-12-07T07:22:04;4.50;99.90
71155;DHT22;59375;53.216;5.728;2022-12-07T07:24:29;4.50;99.90
71155;DHT22;59375;53.216;5.728;2022-12-07T07:26:55;4.50;99.90
71155;DHT22;59375;53.216;5.728;2022-12-07T07:29:20;4.40;99.90
71155;DHT22;59375;53.216;5.728;2022-12-07T07:31:46;4.40;99.90
71155;DHT22;59375;53.216;5.728;2022-12-07T07:34:11;4.40;99.90
71155;DHT22;59375;53.216;5.728;2022-12-07T07:36:37;4.40;99.90
71155;DHT22;59375;53.216;5.728;2022-12-07T07:39:03;4.40;99.90
71155;DHT22;59375;53.216;5.728;2022-12-07T07:41:28;4.40;99.90
71155;DHT22;59375;53.216;5.728;2022-12-07T07:43:53;4.30;99.90
71155;DHT22;59375;53.216;5.728;2022-12-07T07:46:19;4.20;99.90
71155;DHT22;59375;53.216;5.728;2022-12-07T07:48:44;4.20;99.90
71155;DHT22;59375;53.216;5.728;2022-12-07T07:51:10;4.10;99.90
71155;DHT22;59375;53.216;5.728;2022-12-07T07:53:35;4.10;99.90
71155;DHT22;59375;53.216;5.728;2022-12-07T07:56:00;4.00;99.90
71155;DHT22;59375;53.216;5.728;2022-12-07T07:58:26;4.00;99.90
71155;DHT22;59375;53.216;5.728;2022-12-07T08:00:52;4.00;99.90
71155;DHT22;59375;53.216;5.728;2022-12-07T08:03:17;4.00;99.90
71155;DHT22;59375;53.216;5.728;2022-12-07T08:05:42;4.00;99.90
71155;DHT22;59375;53.216;5.728;2022-12-07T08:08:08;4.10;99.90
71155;DHT22;59375;53.216;5.728;2022-12-07T08:10:33;4.30;99.90
71155;DHT22;59375;53.216;5.728;2022-12-07T08:13:00;4.40;99.90
71155;DHT22;59375;53.216;5.728;2022-12-07T08:15:44;4.40;99.90
71155;DHT22;59375;53.216;5.728;2022-12-07T08:18:10;4.40;99.90
71155;DHT22;59375;53.216;5.728;2022-12-07T08:20:36;4.40;99.90
71155;DHT22;59375;53.216;5.728;2022-12-07T08:23:03;4.50;99.90
71155;DHT22;59375;53.216;5.728;2022-12-07T08:25:28;4.50;99.90
71155;DHT22;59375;53.216;5.728;2022-12-07T08:27:54;4.40;99.90
71155;DHT22;59375;53.216;5.728;2022-12-07T08:30:20;4.40;99.90
71155;DHT22;59375;53.216;5.728;2022-12-07T08:32:45;4.30;99.90
71155;DHT22;59375;53.216;5.728;2022-12-07T08:35:11;4.30;99.90
71155;DHT22;59375;53.216;5.728;2022-12-07T08:37:36;4.30;99.90
71155;DHT22;59375;53.216;5.728;2022-12-07T08:40:02;4.20;99.90
71155;DHT22;59375;53.216;5.728;2022-12-07T08:42:28;4.20;99.90
71155;DHT22;59375;53.216;5.728;2022-12-07T08:44:58;4.20;99.90
71155;DHT22;59375;53.216;5.728;2022-12-07T08:47:23;4.20;99.90
71155;DHT22;59375;53.216;5.728;2022-12-07T08:49:49;4.20;99.90
71155;DHT22;59375;53.216;5.728;2022-12-07T08:52:16;4.20;99.90
71155;DHT22;59375;53.216;5.728;2022-12-07T08:54:41;4.20;99.90
71155;DHT22;59375;53.216;5.728;2022-12-07T08:57:07;4.30;99.90
71155;DHT22;59375;53.216;5.728;2022-12-07T08:59:33;4.70;99.90
71155;DHT22;59375;53.216;5.728;2022-12-07T09:01:59;5.30;99.90
71155;DHT22;59375;53.216;5.728;2022-12-07T09:04:25;5.90;99.90
71155;DHT22;59375;53.216;5.728;2022-12-07T09:06:50;6.40;99.90
71155;DHT22;59375;53.216;5.728;2022-12-07T09:09:16;6.60;99.90
71155;DHT22;59375;53.216;5.728;2022-12-07T09:11:41;6.90;99.90
71155;DHT22;59375;53.216;5.728;2022-12-07T09:14:08;7.10;99.90
71155;DHT22;59375;53.216;5.728;2022-12-07T09:16:33;7.00;99.90
71155;DHT22;59375;53.216;5.728;2022-12-07T09:18:59;7.00;99.90
71155;DHT22;59375;53.216;5.728;2022-12-07T09:21:24;6.90;99.90
71155;DHT22;59375;53.216;5.728;2022-12-07T09:23:50;6.90;99.90
71155;DHT22;59375;53.216;5.728;2022-12-07T09:26:15;6.70;99.90
71155;DHT22;59375;53.216;5.728;2022-12-07T09:28:40;6.50;99.90
71155;DHT22;59375;53.216;5.728;2022-12-07T09:31:06;6.30;99.90
71155;DHT22;59375;53.216;5.728;2022-12-07T09:33:31;6.10;99.90
71155;DHT22;59375;53.216;5.728;2022-12-07T09:35:57;5.90;99.90
71155;DHT22;59375;53.216;5.728;2022-12-07T09:38:23;5.80;99.90
71155;DHT22;59375;53.216;5.728;2022-12-07T09:40:51;5.80;99.90
71155;DHT22;59375;53.216;5.728;2022-12-07T09:43:22;5.90;99.90
71155;DHT22;59375;53.216;5.728;2022-12-07T09:45:50;6.20;99.90
71155;DHT22;59375;53.216;5.728;2022-12-07T09:48:21;6.70;99.90
71155;DHT22;59375;53.216;5.728;2022-12-07T09:50:47;7.00;99.90
71155;DHT22;59375;53.216;5.728;2022-12-07T09:53:14;7.20;99.90
71155;DHT22;59375;53.216;5.728;2022-12-07T09:55:41;7.20;99.90
71155;DHT22;59375;53.216;5.728;2022-12-07T09:58:19;7.10;99.90
71155;DHT22;59375;53.216;5.728;2022-12-07T10:00:45;7.10;99.90
71155;DHT22;59375;53.216;5.728;2022-12-07T10:03:11;7.10;99.90
71155;DHT22;59375;53.216;5.728;2022-12-07T10:05:38;7.20;99.90
71155;DHT22;59375;53.216;5.728;2022-12-07T10:08:07;7.10;99.90
71155;DHT22;59375;53.216;5.728;2022-12-07T10:10:33;7.00;99.90
71155;DHT22;59375;53.216;5.728;2022-12-07T10:13:04;7.00;99.90
71155;DHT22;59375;53.216;5.728;2022-12-07T10:18:21;7.30;99.90
71155;DHT22;59375;53.216;5.728;2022-12-07T10:20:59;7.30;99.90
71155;DHT22;59375;53.216;5.728;2022-12-07T10:23:24;7.20;99.90
71155;DHT22;59375;53.216;5.728;2022-12-07T10:25:50;7.00;99.90
71155;DHT22;59375;53.216;5.728;2022-12-07T10:28:20;6.70;99.90
71155;DHT22;59375;53.216;5.728;2022-12-07T10:36:19;6.30;99.90
71155;DHT22;59375;53.216;5.728;2022-12-07T10:38:52;6.20;99.90
71155;DHT22;59375;53.216;5.728;2022-12-07T10:41:18;6.20;99.90
71155;DHT22;59375;53.216;5.728;2022-12-07T10:43:49;6.30;99.90
71155;DHT22;59375;53.216;5.728;2022-12-07T10:48:47;6.30;99.90
71155;DHT22;59375;53.216;5.728;2022-12-07T10:51:19;6.30;99.90
71155;DHT22;59375;53.216;5.728;2022-12-07T10:54:08;6.30;99.90
71155;DHT22;59375;53.216;5.728;2022-12-07T10:56:48;6.30;99.90
71155;DHT22;59375;53.216;5.728;2022-12-07T10:59:33;6.30;99.90
71155;DHT22;59375;53.216;5.728;2022-12-07T11:15:42;7.30;99.90
71155;DHT22;59375;53.216;5.728;2022-12-07T11:18:21;7.40;99.90
71155;DHT22;59375;53.216;5.728;2022-12-07T11:21:07;7.10;99.90
71155;DHT22;59375;53.216;5.728;2022-12-07T11:31:12;6.60;99.90
71155;DHT22;59375;53.216;5.728;2022-12-07T11:38:58;8.30;99.90
71155;DHT22;59375;53.216;5.728;2022-12-07T11:41:32;8.40;99.90
71155;DHT22;59375;53.216;5.728;2022-12-07T11:46:47;8.10;99.90
71155;DHT22;59375;53.216;5.728;2022-12-07T11:49:18;8.00;99.90
71155;DHT22;59375;53.216;5.728;2022-12-07T11:51:44;7.80;99.90
71155;DHT22;59375;53.216;5.728;2022-12-07T11:56:36;8.10;99.90
71155;DHT22;59375;53.216;5.728;2022-12-07T11:59:12;8.40;99.90
71155;DHT22;59375;53.216;5.728;2022-12-07T12:01:47;8.90;99.90
71155;DHT22;59375;53.216;5.728;2022-12-07T12:04:34;9.80;99.90
71155;DHT22;59375;53.216;5.728;2022-12-07T12:07:05;10.10;99.90
71155;DHT22;59375;53.216;5.728;2022-12-07T12:09:32;10.10;99.90
71155;DHT22;59375;53.216;5.728;2022-12-07T12:12:14;9.60;99.90
71155;DHT22;59375;53.216;5.728;2022-12-07T12:17:39;8.30;99.90
71155;DHT22;59375;53.216;5.728;2022-12-07T12:20:15;7.80;99.90
71155;DHT22;59375;53.216;5.728;2022-12-07T12:22:44;7.40;99.90
71155;DHT22;59375;53.216;5.728;2022-12-07T12:25:21;7.10;99.90
71155;DHT22;59375;53.216;5.728;2022-12-07T12:27:47;6.90;99.90
71155;DHT22;59375;53.216;5.728;2022-12-07T12:30:24;6.80;99.90
71155;DHT22;59375;53.216;5.728;2022-12-07T12:32:51;6.80;99.90
71155;DHT22;59375;53.216;5.728;2022-12-07T12:35:20;6.90;99.90
71155;DHT22;59375;53.216;5.728;2022-12-07T12:37:48;7.40;99.90
71155;DHT22;59375;53.216;5.728;2022-12-07T12:42:52;7.90;99.90
71155;DHT22;59375;53.216;5.728;2022-12-07T12:45:20;7.80;99.90
71155;DHT22;59375;53.216;5.728;2022-12-07T12:47:53;7.40;99.90
71155;DHT22;59375;53.216;5.728;2022-12-07T12:50:29;7.10;99.90
71155;DHT22;59375;53.216;5.728;2022-12-07T12:52:57;6.80;99.90
71155;DHT22;59375;53.216;5.728;2022-12-07T12:55:29;6.40;99.90
71155;DHT22;59375;53.216;5.728;2022-12-07T13:00:48;5.90;99.90
71155;DHT22;59375;53.216;5.728;2022-12-07T13:03:33;5.80;99.90
71155;DHT22;59375;53.216;5.728;2022-12-07T13:08:44;5.80;99.90
71155;DHT22;59375;53.216;5.728;2022-12-07T13:11:17;5.90;99.90
71155;DHT22;59375;53.216;5.728;2022-12-07T13:13:44;6.00;99.90
71155;DHT22;59375;53.216;5.728;2022-12-07T13:18:35;6.10;99.90
71155;DHT22;59375;53.216;5.728;2022-12-07T13:23:33;6.10;99.90
71155;DHT22;59375;53.216;5.728;2022-12-07T13:26:17;6.00;99.90
71155;DHT22;59375;53.216;5.728;2022-12-07T13:28:44;5.80;99.90
71155;DHT22;59375;53.216;5.728;2022-12-07T13:33:35;5.50;99.90
71155;DHT22;59375;53.216;5.728;2022-12-07T13:36:01;5.40;99.90
71155;DHT22;59375;53.216;5.728;2022-12-07T13:38:27;5.30;99.90
71155;DHT22;59375;53.216;5.728;2022-12-07T13:43:52;5.20;99.90
71155;DHT22;59375;53.216;5.728;2022-12-07T13:46:24;5.20;99.90
71155;DHT22;59375;53.216;5.728;2022-12-07T13:48:50;5.20;99.90
71155;DHT22;59375;53.216;5.728;2022-12-07T13:51:17;5.20;99.90
71155;DHT22;59375;53.216;5.728;2022-12-07T13:53:47;5.20;99.90
71155;DHT22;59375;53.216;5.728;2022-12-07T13:56:12;5.20;99.90
71155;DHT22;59375;53.216;5.728;2022-12-07T13:58:38;5.20;99.90
71155;DHT22;59375;53.216;5.728;2022-12-07T14:01:04;5.20;99.90
71155;DHT22;59375;53.216;5.728;2022-12-07T14:03:33;5.20;99.90
71155;DHT22;59375;53.216;5.728;2022-12-07T14:06:46;5.20;99.90
71155;DHT22;59375;53.216;5.728;2022-12-07T14:08:50;5.20;99.90
71155;DHT22;59375;53.216;5.728;2022-12-07T14:11:17;5.20;99.90
71155;DHT22;59375;53.216;5.728;2022-12-07T14:13:55;5.20;99.90
71155;DHT22;59375;53.216;5.728;2022-12-07T14:16:23;5.30;99.90
71155;DHT22;59375;53.216;5.728;2022-12-07T14:18:53;5.30;99.90
71155;DHT22;59375;53.216;5.728;2022-12-07T14:21:20;5.20;99.90
71155;DHT22;59375;53.216;5.728;2022-12-07T14:26:48;5.10;99.90
71155;DHT22;59375;53.216;5.728;2022-12-07T14:29:21;5.10;99.90
71155;DHT22;59375;53.216;5.728;2022-12-07T14:31:46;5.10;99.90
71155;DHT22;59375;53.216;5.728;2022-12-07T14:34:12;5.00;99.90
71155;DHT22;59375;53.216;5.728;2022-12-07T14:36:37;5.00;99.90
71155;DHT22;59375;53.216;5.728;2022-12-07T14:39:03;5.00;99.90
71155;DHT22;59375;53.216;5.728;2022-12-07T14:41:28;5.00;99.90
71155;DHT22;59375;53.216;5.728;2022-12-07T14:44:13;4.90;99.90
71155;DHT22;59375;53.216;5.728;2022-12-07T14:46:38;4.90;99.90
71155;DHT22;59375;53.216;5.728;2022-12-07T14:49:04;4.90;99.90
71155;DHT22;59375;53.216;5.728;2022-12-07T14:51:30;4.80;99.90
71155;DHT22;59375;53.216;5.728;2022-12-07T14:53:56;4.80;99.90
71155;DHT22;59375;53.216;5.728;2022-12-07T14:56:21;4.80;99.90
71155;DHT22;59375;53.216;5.728;2022-12-07T14:58:46;4.70;99.90
71155;DHT22;59375;53.216;5.728;2022-12-07T15:01:13;4.70;99.90
71155;DHT22;59375;53.216;5.728;2022-12-07T15:03:39;4.70;99.90
71155;DHT22;59375;53.216;5.728;2022-12-07T15:06:04;4.60;99.90
71155;DHT22;59375;53.216;5.728;2022-12-07T15:08:30;4.70;99.90
71155;DHT22;59375;53.216;5.728;2022-12-07T15:10:56;4.70;99.90
71155;DHT22;59375;53.216;5.728;2022-12-07T15:13:21;4.70;99.90
71155;DHT22;59375;53.216;5.728;2022-12-07T15:16:07;4.70;99.90
71155;DHT22;59375;53.216;5.728;2022-12-07T15:18:33;4.60;99.90
71155;DHT22;59375;53.216;5.728;2022-12-07T15:20:58;4.60;99.90
71155;DHT22;59375;53.216;5.728;2022-12-07T15:23:24;4.60;99.90
71155;DHT22;59375;53.216;5.728;2022-12-07T15:25:49;4.60;99.90
71155;DHT22;59375;53.216;5.728;2022-12-07T15:28:15;4.60;99.90
71155;DHT22;59375;53.216;5.728;2022-12-07T15:30:41;4.60;99.90
71155;DHT22;59375;53.216;5.728;2022-12-07T15:33:10;4.50;99.90
71155;DHT22;59375;53.216;5.728;2022-12-07T15:35:40;4.50;99.90
71155;DHT22;59375;53.216;5.728;2022-12-07T15:38:05;4.50;99.90
71155;DHT22;59375;53.216;5.728;2022-12-07T15:40:31;4.50;99.90
71155;DHT22;59375;53.216;5.728;2022-12-07T15:42:56;4.50;99.90
71155;DHT22;59375;53.216;5.728;2022-12-07T15:45:22;4.50;99.90
71155;DHT22;59375;53.216;5.728;2022-12-07T15:47:47;4.40;99.90
71155;DHT22;59375;53.216;5.728;2022-12-07T15:50:14;4.40;99.90
71155;DHT22;59375;53.216;5.728;2022-12-07T15:52:40;4.40;99.90
71155;DHT22;59375;53.216;5.728;2022-12-07T15:55:05;4.30;99.90
71155;DHT22;59375;53.216;5.728;2022-12-07T15:57:31;4.30;99.90
71155;DHT22;59375;53.216;5.728;2022-12-07T15:59:57;4.30;99.90
71155;DHT22;59375;53.216;5.728;2022-12-07T16:02:22;4.30;99.90
71155;DHT22;59375;53.216;5.728;2022-12-07T16:04:48;4.30;99.90
71155;DHT22;59375;53.216;5.728;2022-12-07T16:07:14;4.20;99.90
71155;DHT22;59375;53.216;5.728;2022-12-07T16:09:41;4.20;99.90
71155;DHT22;59375;53.216;5.728;2022-12-07T16:12:07;4.20;99.90
71155;DHT22;59375;53.216;5.728;2022-12-07T16:14:33;4.10;99.90
71155;DHT22;59375;53.216;5.728;2022-12-07T16:16:59;4.10;99.90
71155;DHT22;59375;53.216;5.728;2022-12-07T16:19:25;4.10;99.90
71155;DHT22;59375;53.216;5.728;2022-12-07T16:21:50;4.10;99.90
71155;DHT22;59375;53.216;5.728;2022-12-07T16:24:16;4.10;99.90
71155;DHT22;59375;53.216;5.728;2022-12-07T16:26:42;4.10;99.90
71155;DHT22;59375;53.216;5.728;2022-12-07T16:29:09;4.10;99.90
71155;DHT22;59375;53.216;5.728;2022-12-07T16:31:35;4.10;99.90
71155;DHT22;59375;53.216;5.728;2022-12-07T16:34:00;4.10;99.90
71155;DHT22;59375;53.216;5.728;2022-12-07T16:36:26;4.10;99.90
71155;DHT22;59375;53.216;5.728;2022-12-07T16:38:52;4.10;99.90
71155;DHT22;59375;53.216;5.728;2022-12-07T16:41:18;4.10;99.90
71155;DHT22;59375;53.216;5.728;2022-12-07T16:43:43;4.10;99.90
71155;DHT22;59375;53.216;5.728;2022-12-07T16:46:09;4.10;99.90
71155;DHT22;59375;53.216;5.728;2022-12-07T16:48:35;4.10;99.90
71155;DHT22;59375;53.216;5.728;2022-12-07T16:51:02;4.10;99.90
71155;DHT22;59375;53.216;5.728;2022-12-07T16:53:28;4.10;99.90
71155;DHT22;59375;53.216;5.728;2022-12-07T16:55:53;4.20;99.90
71155;DHT22;59375;53.216;5.728;2022-12-07T16:58:19;4.30;99.90
71155;DHT22;59375;53.216;5.728;2022-12-07T17:00:44;4.30;99.90
71155;DHT22;59375;53.216;5.728;2022-12-07T17:03:10;4.40;99.90
71155;DHT22;59375;53.216;5.728;2022-12-07T17:05:39;4.40;99.90
71155;DHT22;59375;53.216;5.728;2022-12-07T17:08:05;4.40;99.90